sensor_id;sensor_type;location;lat;lon;timestamp;P1;durP1;ratioP1;P2;durP2;ratioP2
78290;SDS011;67543;45.494;9.100;2023-03-22T00:01:22;33.25;;;18.45;;
78290;SDS011;67543;45.494;9.100;2023-03-22T00:03:48;37.63;;;19.67;;
78290;SDS011;67543;45.494;9.100;2023-03-22T00:06:14;37.45;;;22.23;;
78290;SDS011;67543;45.494;9.100;2023-03-22T00:08:40;37.47;;;22.38;;
78290;SDS011;67543;45.494;9.100;2023-03-22T00:11:06;36.67;;;21.67;;
78290;SDS011;67543;45.494;9.100;2023-03-22T00:13:32;37.28;;;22.50;;
78290;SDS011;67543;45.494;9.100;2023-03-22T00:15:58;36.95;;;20.63;;
78290;SDS011;67543;45.494;9.100;2023-03-22T00:18:26;37.75;;;22.25;;
78290;SDS011;67543;45.494;9.100;2023-03-22T00:20:53;39.55;;;21.88;;
78290;SDS011;67543;45.494;9.100;2023-03-22T00:23:19;42.90;;;25.08;;
78290;SDS011;67543;45.494;9.100;2023-03-22T00:25:45;43.53;;;24.63;;
78290;SDS011;67543;45.494;9.100;2023-03-22T00:28:11;36.55;;;21.83;;
78290;SDS011;67543;45.494;9.100;2023-03-22T00:30:38;40.22;;;22.27;;
78290;SDS011;67543;45.494;9.100;2023-03-22T00:33:04;40.20;;;22.63;;
78290;SDS011;67543;45.494;9.100;2023-03-22T00:35:29;40.40;;;22.98;;
78290;SDS011;67543;45.494;9.100;2023-03-22T00:37:55;37.33;;;22.45;;
78290;SDS011;67543;45.494;9.100;2023-03-22T00:40:20;36.88;;;23.35;;
78290;SDS011;67543;45.494;9.100;2023-03-22T00:42:45;40.90;;;22.70;;
78290;SDS011;67543;45.494;9.100;2023-03-22T00:45:11;39.72;;;23.75;;
78290;SDS011;67543;45.494;9.100;2023-03-22T00:47:37;36.97;;;23.63;;
78290;SDS011;67543;45.494;9.100;2023-03-22T00:50:03;39.35;;;22.20;;
78290;SDS011;67543;45.494;9.100;2023-03-22T00:52:30;38.22;;;23.83;;
78290;SDS011;67543;45.494;9.100;2023-03-22T00:54:56;39.38;;;23.98;;
78290;SDS011;67543;45.494;9.100;2023-03-22T00:57:21;42.08;;;23.92;;
78290;SDS011;67543;45.494;9.100;2023-03-22T00:59:47;41.53;;;23.25;;
78290;SDS011;67543;45.494;9.100;2023-03-22T01:02:12;40.10;;;23.00;;
78290;SDS011;67543;45.494;9.100;2023-03-22T01:04:39;38.63;;;24.27;;
78290;SDS011;67543;45.494;9.100;2023-03-22T01:07:10;41.80;;;25.13;;
78290;SDS011;67543;45.494;9.100;2023-03-22T01:09:45;40.58;;;23.33;;
78290;SDS011;67543;45.494;9.100;2023-03-22T01:12:11;43.78;;;24.10;;
78290;SDS011;67543;45.494;9.100;2023-03-22T01:14:37;39.50;;;25.50;;
78290;SDS011;67543;45.494;9.100;2023-03-22T01:17:03;38.50;;;23.90;;
78290;SDS011;67543;45.494;9.100;2023-03-22T01:19:28;46.47;;;25.23;;
78290;SDS011;67543;45.494;9.100;2023-03-22T01:21:54;36.85;;;23.42;;
78290;SDS011;67543;45.494;9.100;2023-03-22T01:24:20;34.50;;;22.10;;
78290;SDS011;67543;45.494;9.100;2023-03-22T01:26:46;41.47;;;24.60;;
78290;SDS011;67543;45.494;9.100;2023-03-22T01:29:13;39.13;;;24.20;;
78290;SDS011;67543;45.494;9.100;2023-03-22T01:31:40;40.63;;;23.30;;
78290;SDS011;67543;45.494;9.100;2023-03-22T01:34:05;43.58;;;24.30;;
78290;SDS011;67543;45.494;9.100;2023-03-22T01:36:30;40.60;;;24.88;;
78290;SDS011;67543;45.494;9.100;2023-03-22T01:38:56;46.53;;;24.92;;
78290;SDS011;67543;45.494;9.100;2023-03-22T01:41:21;40.50;;;23.98;;
78290;SDS011;67543;45.494;9.100;2023-03-22T01:46:32;41.42;;;23.92;;
78290;SDS011;67543;45.494;9.100;2023-03-22T01:48:57;39.70;;;24.07;;
78290;SDS011;67543;45.494;9.100;2023-03-22T01:51:24;41.25;;;23.50;;
78290;SDS011;67543;45.494;9.100;2023-03-22T01:53:51;40.70;;;24.60;;
78290;SDS011;67543;45.494;9.100;2023-03-22T01:56:24;36.92;;;24.48;;
78290;SDS011;67543;45.494;9.100;2023-03-22T01:58:51;44.03;;;24.85;;
78290;SDS011;67543;45.494;9.100;2023-03-22T02:01:18;44.08;;;25.55;;
78290;SDS011;67543;45.494;9.100;2023-03-22T02:04:00;45.80;;;25.30;;
78290;SDS011;67543;45.494;9.100;2023-03-22T02:06:28;40.85;;;24.42;;
78290;SDS011;67543;45.494;9.100;2023-03-22T02:08:54;44.17;;;27.38;;
78290;SDS011;67543;45.494;9.100;2023-03-22T02:11:27;41.35;;;25.25;;
78290;SDS011;67543;45.494;9.100;2023-03-22T02:16:47;46.20;;;24.83;;
78290;SDS011;67543;45.494;9.100;2023-03-22T02:19:59;46.80;;;25.17;;
78290;SDS011;67543;45.494;9.100;2023-03-22T02:44:21;41.75;;;24.27;;
78290;SDS011;67543;45.494;9.100;2023-03-22T02:47:31;43.72;;;26.67;;
78290;SDS011;67543;45.494;9.100;2023-03-22T02:49:38;45.38;;;25.13;;
78290;SDS011;67543;45.494;9.100;2023-03-22T02:52:11;41.70;;;27.95;;
78290;SDS011;67543;45.494;9.100;2023-03-22T02:57:34;41.17;;;25.05;;
78290;SDS011;67543;45.494;9.100;2023-03-22T03:00:04;44.08;;;26.48;;
78290;SDS011;67543;45.494;9.100;2023-03-22T03:02:38;43.45;;;27.00;;
78290;SDS011;67543;45.494;9.100;2023-03-22T03:05:05;42.70;;;26.35;;
78290;SDS011;67543;45.494;9.100;2023-03-22T03:07:32;43.53;;;25.92;;
78290;SDS011;67543;45.494;9.100;2023-03-22T03:09:58;40.35;;;24.92;;
78290;SDS011;67543;45.494;9.100;2023-03-22T03:12:25;42.97;;;26.75;;
78290;SDS011;67543;45.494;9.100;2023-03-22T03:14:51;46.80;;;27.15;;
78290;SDS011;67543;45.494;9.100;2023-03-22T03:17:27;47.20;;;27.13;;
78290;SDS011;67543;45.494;9.100;2023-03-22T03:28:09;45.78;;;25.42;;
78290;SDS011;67543;45.494;9.100;2023-03-22T03:30:45;48.33;;;25.80;;
78290;SDS011;67543;45.494;9.100;2023-03-22T03:33:18;41.50;;;25.73;;
78290;SDS011;67543;45.494;9.100;2023-03-22T03:35:47;48.03;;;25.50;;
78290;SDS011;67543;45.494;9.100;2023-03-22T03:38:17;43.78;;;25.83;;
78290;SDS011;67543;45.494;9.100;2023-03-22T03:40:59;49.13;;;30.48;;
78290;SDS011;67543;45.494;9.100;2023-03-22T03:43:27;43.28;;;25.67;;
78290;SDS011;67543;45.494;9.100;2023-03-22T03:45:53;46.20;;;26.25;;
78290;SDS011;67543;45.494;9.100;2023-03-22T03:48:23;47.00;;;25.75;;
78290;SDS011;67543;45.494;9.100;2023-03-22T03:50:52;45.95;;;25.50;;
78290;SDS011;67543;45.494;9.100;2023-03-22T03:53:18;37.90;;;25.30;;
78290;SDS011;67543;45.494;9.100;2023-03-22T03:55:43;42.25;;;25.75;;
78290;SDS011;67543;45.494;9.100;2023-03-22T03:58:09;43.33;;;25.17;;
78290;SDS011;67543;45.494;9.100;2023-03-22T04:00:35;46.63;;;25.92;;
78290;SDS011;67543;45.494;9.100;2023-03-22T04:03:01;42.67;;;25.45;;
78290;SDS011;67543;45.494;9.100;2023-03-22T04:05:27;46.72;;;25.67;;
78290;SDS011;67543;45.494;9.100;2023-03-22T04:07:52;42.80;;;25.45;;
78290;SDS011;67543;45.494;9.100;2023-03-22T04:10:18;45.08;;;24.80;;
78290;SDS011;67543;45.494;9.100;2023-03-22T04:12:43;40.17;;;25.38;;
78290;SDS011;67543;45.494;9.100;2023-03-22T04:15:09;45.10;;;26.38;;
78290;SDS011;67543;45.494;9.100;2023-03-22T04:17:36;42.78;;;25.42;;
78290;SDS011;67543;45.494;9.100;2023-03-22T04:20:04;46.75;;;26.13;;
78290;SDS011;67543;45.494;9.100;2023-03-22T04:22:30;42.17;;;25.45;;
78290;SDS011;67543;45.494;9.100;2023-03-22T04:24:59;40.80;;;24.25;;
78290;SDS011;67543;45.494;9.100;2023-03-22T04:27:25;44.35;;;25.42;;
78290;SDS011;67543;45.494;9.100;2023-03-22T04:29:51;46.50;;;25.60;;
78290;SDS011;67543;45.494;9.100;2023-03-22T04:32:18;42.85;;;25.00;;
78290;SDS011;67543;45.494;9.100;2023-03-22T04:34:46;41.80;;;25.13;;
78290;SDS011;67543;45.494;9.100;2023-03-22T04:37:15;44.92;;;25.08;;
78290;SDS011;67543;45.494;9.100;2023-03-22T04:39:41;40.60;;;25.10;;
78290;SDS011;67543;45.494;9.100;2023-03-22T04:42:07;41.55;;;24.55;;
78290;SDS011;67543;45.494;9.100;2023-03-22T04:44:33;44.50;;;23.88;;
78290;SDS011;67543;45.494;9.100;2023-03-22T04:46:58;43.92;;;25.38;;
78290;SDS011;67543;45.494;9.100;2023-03-22T04:49:24;43.05;;;23.40;;
78290;SDS011;67543;45.494;9.100;2023-03-22T04:51:52;43.95;;;24.52;;
78290;SDS011;67543;45.494;9.100;2023-03-22T04:54:18;38.42;;;23.58;;
78290;SDS011;67543;45.494;9.100;2023-03-22T04:56:43;41.35;;;23.75;;
78290;SDS011;67543;45.494;9.100;2023-03-22T04:59:08;40.17;;;23.75;;
78290;SDS011;67543;45.494;9.100;2023-03-22T05:01:34;43.97;;;24.17;;
78290;SDS011;67543;45.494;9.100;2023-03-22T05:04:01;36.45;;;22.38;;
78290;SDS011;67543;45.494;9.100;2023-03-22T05:06:27;39.85;;;23.77;;
78290;SDS011;67543;45.494;9.100;2023-03-22T05:08:52;40.55;;;23.50;;
78290;SDS011;67543;45.494;9.100;2023-03-22T05:11:18;33.85;;;23.15;;
78290;SDS011;67543;45.494;9.100;2023-03-22T05:13:44;33.55;;;22.67;;
78290;SDS011;67543;45.494;9.100;2023-03-22T05:16:10;33.60;;;22.70;;
78290;SDS011;67543;45.494;9.100;2023-03-22T05:18:36;38.28;;;24.33;;
78290;SDS011;67543;45.494;9.100;2023-03-22T05:21:08;41.05;;;23.70;;
78290;SDS011;67543;45.494;9.100;2023-03-22T05:23:37;39.33;;;23.20;;
78290;SDS011;67543;45.494;9.100;2023-03-22T05:26:03;40.17;;;23.08;;
78290;SDS011;67543;45.494;9.100;2023-03-22T05:28:29;42.33;;;24.38;;
78290;SDS011;67543;45.494;9.100;2023-03-22T05:30:55;41.97;;;24.40;;
78290;SDS011;67543;45.494;9.100;2023-03-22T05:33:21;40.42;;;23.55;;
78290;SDS011;67543;45.494;9.100;2023-03-22T05:35:47;35.80;;;23.25;;
78290;SDS011;67543;45.494;9.100;2023-03-22T05:38:14;35.75;;;23.10;;
78290;SDS011;67543;45.494;9.100;2023-03-22T05:40:40;41.70;;;22.73;;
78290;SDS011;67543;45.494;9.100;2023-03-22T05:43:06;41.65;;;24.77;;
78290;SDS011;67543;45.494;9.100;2023-03-22T05:45:31;42.15;;;23.52;;
78290;SDS011;67543;45.494;9.100;2023-03-22T05:47:57;41.05;;;23.20;;
78290;SDS011;67543;45.494;9.100;2023-03-22T05:50:22;39.17;;;23.48;;
78290;SDS011;67543;45.494;9.100;2023-03-22T05:52:48;39.85;;;23.23;;
78290;SDS011;67543;45.494;9.100;2023-03-22T05:55:15;39.20;;;22.13;;
78290;SDS011;67543;45.494;9.100;2023-03-22T05:57:42;43.95;;;24.13;;
78290;SDS011;67543;45.494;9.100;2023-03-22T06:00:09;41.35;;;23.95;;
78290;SDS011;67543;45.494;9.100;2023-03-22T06:02:40;41.55;;;23.95;;
78290;SDS011;67543;45.494;9.100;2023-03-22T06:05:07;37.88;;;23.90;;
78290;SDS011;67543;45.494;9.100;2023-03-22T06:07:35;41.22;;;22.98;;
78290;SDS011;67543;45.494;9.100;2023-03-22T06:10:01;36.28;;;22.05;;
78290;SDS011;67543;45.494;9.100;2023-03-22T06:12:26;41.47;;;23.67;;
78290;SDS011;67543;45.494;9.100;2023-03-22T06:14:52;39.92;;;22.95;;
78290;SDS011;67543;45.494;9.100;2023-03-22T06:17:17;41.13;;;23.15;;
78290;SDS011;67543;45.494;9.100;2023-03-22T06:19:43;37.70;;;20.67;;
78290;SDS011;67543;45.494;9.100;2023-03-22T06:22:09;41.63;;;22.65;;
78290;SDS011;67543;45.494;9.100;2023-03-22T06:24:34;40.40;;;23.67;;
78290;SDS011;67543;45.494;9.100;2023-03-22T06:27:00;41.25;;;23.05;;
78290;SDS011;67543;45.494;9.100;2023-03-22T06:29:25;40.20;;;21.88;;
78290;SDS011;67543;45.494;9.100;2023-03-22T06:31:51;39.47;;;23.35;;
78290;SDS011;67543;45.494;9.100;2023-03-22T06:34:16;42.72;;;24.33;;
78290;SDS011;67543;45.494;9.100;2023-03-22T06:36:42;37.65;;;21.55;;
78290;SDS011;67543;45.494;9.100;2023-03-22T06:39:07;35.85;;;23.25;;
78290;SDS011;67543;45.494;9.100;2023-03-22T06:41:33;40.03;;;22.67;;
78290;SDS011;67543;45.494;9.100;2023-03-22T06:43:59;37.15;;;22.33;;
78290;SDS011;67543;45.494;9.100;2023-03-22T06:46:26;37.58;;;22.40;;
78290;SDS011;67543;45.494;9.100;2023-03-22T06:48:51;38.35;;;22.55;;
78290;SDS011;67543;45.494;9.100;2023-03-22T06:51:16;39.28;;;22.52;;
78290;SDS011;67543;45.494;9.100;2023-03-22T06:53:42;45.08;;;25.58;;
78290;SDS011;67543;45.494;9.100;2023-03-22T06:56:07;43.42;;;22.73;;
78290;SDS011;67543;45.494;9.100;2023-03-22T06:58:33;44.38;;;23.63;;
78290;SDS011;67543;45.494;9.100;2023-03-22T07:00:58;45.20;;;24.40;;
78290;SDS011;67543;45.494;9.100;2023-03-22T07:03:23;43.10;;;23.20;;
78290;SDS011;67543;45.494;9.100;2023-03-22T07:05:49;46.95;;;24.67;;
78290;SDS011;67543;45.494;9.100;2023-03-22T07:08:14;41.10;;;24.77;;
78290;SDS011;67543;45.494;9.100;2023-03-22T07:10:40;42.92;;;23.73;;
78290;SDS011;67543;45.494;9.100;2023-03-22T07:13:07;38.70;;;22.40;;
78290;SDS011;67543;45.494;9.100;2023-03-22T07:15:33;39.58;;;22.17;;
78290;SDS011;67543;45.494;9.100;2023-03-22T07:17:59;42.03;;;22.77;;
78290;SDS011;67543;45.494;9.100;2023-03-22T07:20:25;38.72;;;22.23;;
78290;SDS011;67543;45.494;9.100;2023-03-22T07:22:51;41.38;;;24.23;;
78290;SDS011;67543;45.494;9.100;2023-03-22T07:25:16;45.40;;;26.35;;
78290;SDS011;67543;45.494;9.100;2023-03-22T07:27:42;45.65;;;26.15;;
78290;SDS011;67543;45.494;9.100;2023-03-22T07:30:07;42.92;;;25.05;;
78290;SDS011;67543;45.494;9.100;2023-03-22T07:32:33;44.33;;;25.25;;
78290;SDS011;67543;45.494;9.100;2023-03-22T07:34:58;47.53;;;26.27;;
78290;SDS011;67543;45.494;9.100;2023-03-22T07:37:24;47.08;;;27.58;;
78290;SDS011;67543;45.494;9.100;2023-03-22T07:39:49;51.00;;;27.60;;
78290;SDS011;67543;45.494;9.100;2023-03-22T07:42:15;53.42;;;27.50;;
78290;SDS011;67543;45.494;9.100;2023-03-22T07:44:41;47.05;;;28.17;;
78290;SDS011;67543;45.494;9.100;2023-03-22T07:47:06;53.13;;;28.77;;
78290;SDS011;67543;45.494;9.100;2023-03-22T07:49:31;49.95;;;27.83;;
78290;SDS011;67543;45.494;9.100;2023-03-22T07:51:57;49.50;;;27.75;;
78290;SDS011;67543;45.494;9.100;2023-03-22T07:54:22;47.33;;;28.23;;
78290;SDS011;67543;45.494;9.100;2023-03-22T07:56:47;49.00;;;28.33;;
78290;SDS011;67543;45.494;9.100;2023-03-22T07:59:16;52.17;;;29.40;;
78290;SDS011;67543;45.494;9.100;2023-03-22T08:01:42;50.63;;;28.58;;
78290;SDS011;67543;45.494;9.100;2023-03-22T08:04:08;53.20;;;31.38;;
78290;SDS011;67543;45.494;9.100;2023-03-22T08:06:33;51.47;;;30.70;;
78290;SDS011;67543;45.494;9.100;2023-03-22T08:09:01;56.53;;;30.77;;
78290;SDS011;67543;45.494;9.100;2023-03-22T08:11:28;51.20;;;30.23;;
78290;SDS011;67543;45.494;9.100;2023-03-22T08:13:53;51.90;;;29.13;;
78290;SDS011;67543;45.494;9.100;2023-03-22T08:16:19;56.03;;;31.23;;
78290;SDS011;67543;45.494;9.100;2023-03-22T08:18:44;54.22;;;31.92;;
78290;SDS011;67543;45.494;9.100;2023-03-22T08:21:10;55.00;;;32.33;;
78290;SDS011;67543;45.494;9.100;2023-03-22T08:23:35;59.05;;;33.88;;
78290;SDS011;67543;45.494;9.100;2023-03-22T08:26:01;61.25;;;31.88;;
78290;SDS011;67543;45.494;9.100;2023-03-22T08:28:26;54.13;;;32.25;;
78290;SDS011;67543;45.494;9.100;2023-03-22T08:30:51;59.40;;;32.38;;
78290;SDS011;67543;45.494;9.100;2023-03-22T08:33:17;48.42;;;29.15;;
78290;SDS011;67543;45.494;9.100;2023-03-22T08:35:45;50.03;;;30.05;;
78290;SDS011;67543;45.494;9.100;2023-03-22T08:38:10;58.38;;;31.20;;
78290;SDS011;67543;45.494;9.100;2023-03-22T08:40:35;54.92;;;33.72;;
78290;SDS011;67543;45.494;9.100;2023-03-22T08:43:01;61.40;;;33.80;;
78290;SDS011;67543;45.494;9.100;2023-03-22T08:45:26;62.35;;;34.65;;
78290;SDS011;67543;45.494;9.100;2023-03-22T08:47:52;54.67;;;32.28;;
78290;SDS011;67543;45.494;9.100;2023-03-22T08:50:18;58.90;;;33.67;;
78290;SDS011;67543;45.494;9.100;2023-03-22T08:52:43;57.40;;;32.38;;
78290;SDS011;67543;45.494;9.100;2023-03-22T08:55:09;61.92;;;33.10;;
78290;SDS011;67543;45.494;9.100;2023-03-22T08:57:34;66.38;;;37.50;;
78290;SDS011;67543;45.494;9.100;2023-03-22T09:00:00;60.85;;;32.97;;
78290;SDS011;67543;45.494;9.100;2023-03-22T09:02:26;61.50;;;35.13;;
78290;SDS011;67543;45.494;9.100;2023-03-22T09:04:51;63.90;;;33.83;;
78290;SDS011;67543;45.494;9.100;2023-03-22T09:07:17;64.60;;;35.50;;
78290;SDS011;67543;45.494;9.100;2023-03-22T09:09:44;59.35;;;31.95;;
78290;SDS011;67543;45.494;9.100;2023-03-22T09:12:10;62.95;;;34.53;;
78290;SDS011;67543;45.494;9.100;2023-03-22T09:14:35;60.92;;;32.38;;
78290;SDS011;67543;45.494;9.100;2023-03-22T09:17:01;61.40;;;33.00;;
78290;SDS011;67543;45.494;9.100;2023-03-22T09:19:26;52.03;;;30.42;;
78290;SDS011;67543;45.494;9.100;2023-03-22T09:21:52;55.92;;;32.85;;
78290;SDS011;67543;45.494;9.100;2023-03-22T09:24:17;61.65;;;35.35;;
78290;SDS011;67543;45.494;9.100;2023-03-22T09:26:43;60.92;;;35.30;;
78290;SDS011;67543;45.494;9.100;2023-03-22T09:29:09;64.38;;;36.67;;
78290;SDS011;67543;45.494;9.100;2023-03-22T09:31:34;61.92;;;36.05;;
78290;SDS011;67543;45.494;9.100;2023-03-22T09:34:00;59.78;;;34.95;;
78290;SDS011;67543;45.494;9.100;2023-03-22T09:36:25;57.30;;;34.38;;
78290;SDS011;67543;45.494;9.100;2023-03-22T09:38:51;57.60;;;34.25;;
78290;SDS011;67543;45.494;9.100;2023-03-22T09:43:50;62.53;;;37.40;;
78290;SDS011;67543;45.494;9.100;2023-03-22T09:46:23;63.38;;;35.05;;
78290;SDS011;67543;45.494;9.100;2023-03-22T09:48:53;59.47;;;35.47;;
78290;SDS011;67543;45.494;9.100;2023-03-22T09:51:38;61.38;;;35.03;;
78290;SDS011;67543;45.494;9.100;2023-03-22T09:56:43;57.60;;;33.72;;
78290;SDS011;67543;45.494;9.100;2023-03-22T09:59:16;58.58;;;33.42;;
78290;SDS011;67543;45.494;9.100;2023-03-22T10:01:55;61.95;;;35.50;;
78290;SDS011;67543;45.494;9.100;2023-03-22T10:12:39;55.13;;;34.58;;
78290;SDS011;67543;45.494;9.100;2023-03-22T10:15:20;61.58;;;36.72;;
78290;SDS011;67543;45.494;9.100;2023-03-22T10:17:51;58.08;;;34.00;;
78290;SDS011;67543;45.494;9.100;2023-03-22T10:23:12;50.53;;;31.50;;
78290;SDS011;67543;45.494;9.100;2023-03-22T10:25:40;55.05;;;31.42;;
78290;SDS011;67543;45.494;9.100;2023-03-22T10:28:12;56.40;;;31.15;;
78290;SDS011;67543;45.494;9.100;2023-03-22T10:31:05;52.72;;;30.73;;
78290;SDS011;67543;45.494;9.100;2023-03-22T10:33:41;55.47;;;30.38;;
78290;SDS011;67543;45.494;9.100;2023-03-22T10:36:14;53.95;;;29.60;;
78290;SDS011;67543;45.494;9.100;2023-03-22T10:38:54;53.58;;;29.17;;
78290;SDS011;67543;45.494;9.100;2023-03-22T10:41:23;51.38;;;29.23;;
78290;SDS011;67543;45.494;9.100;2023-03-22T10:43:51;47.60;;;28.45;;
78290;SDS011;67543;45.494;9.100;2023-03-22T10:46:18;52.40;;;28.40;;
78290;SDS011;67543;45.494;9.100;2023-03-22T10:48:46;43.83;;;24.88;;
78290;SDS011;67543;45.494;9.100;2023-03-22T10:51:57;47.70;;;27.42;;
78290;SDS011;67543;45.494;9.100;2023-03-22T10:54:04;46.75;;;26.45;;
78290;SDS011;67543;45.494;9.100;2023-03-22T10:56:34;42.83;;;26.55;;
78290;SDS011;67543;45.494;9.100;2023-03-22T10:58:59;43.53;;;26.63;;
78290;SDS011;67543;45.494;9.100;2023-03-22T11:01:32;47.90;;;26.42;;
78290;SDS011;67543;45.494;9.100;2023-03-22T11:04:08;40.42;;;24.40;;
78290;SDS011;67543;45.494;9.100;2023-03-22T11:06:48;40.05;;;23.70;;
78290;SDS011;67543;45.494;9.100;2023-03-22T11:09:16;41.72;;;23.95;;
78290;SDS011;67543;45.494;9.100;2023-03-22T11:11:50;37.33;;;21.70;;
78290;SDS011;67543;45.494;9.100;2023-03-22T11:14:32;34.15;;;21.55;;
78290;SDS011;67543;45.494;9.100;2023-03-22T11:17:18;38.03;;;20.83;;
78290;SDS011;67543;45.494;9.100;2023-03-22T11:22:40;35.95;;;20.70;;
78290;SDS011;67543;45.494;9.100;2023-03-22T11:28:27;31.58;;;17.00;;
78290;SDS011;67543;45.494;9.100;2023-03-22T11:30:34;30.70;;;16.15;;
78290;SDS011;67543;45.494;9.100;2023-03-22T11:33:19;25.88;;;15.02;;
78290;SDS011;67543;45.494;9.100;2023-03-22T11:35:46;28.10;;;16.15;;
78290;SDS011;67543;45.494;9.100;2023-03-22T11:38:23;30.63;;;17.77;;
78290;SDS011;67543;45.494;9.100;2023-03-22T11:40:54;33.30;;;18.45;;
78290;SDS011;67543;45.494;9.100;2023-03-22T11:46:20;36.13;;;18.05;;
78290;SDS011;67543;45.494;9.100;2023-03-22T11:48:47;31.83;;;18.20;;
78290;SDS011;67543;45.494;9.100;2023-03-22T11:51:15;25.70;;;14.27;;
78290;SDS011;67543;45.494;9.100;2023-03-22T11:53:43;26.95;;;14.73;;
78290;SDS011;67543;45.494;9.100;2023-03-22T11:56:11;30.33;;;15.40;;
78290;SDS011;67543;45.494;9.100;2023-03-22T12:01:15;28.27;;;15.20;;
78290;SDS011;67543;45.494;9.100;2023-03-22T12:03:44;30.17;;;13.95;;
78290;SDS011;67543;45.494;9.100;2023-03-22T12:06:17;26.05;;;12.80;;
78290;SDS011;67543;45.494;9.100;2023-03-22T12:08:46;22.30;;;11.98;;
78290;SDS011;67543;45.494;9.100;2023-03-22T12:16:47;22.42;;;12.27;;
78290;SDS011;67543;45.494;9.100;2023-03-22T12:22:30;23.80;;;11.98;;
78290;SDS011;67543;45.494;9.100;2023-03-22T12:24:57;20.40;;;11.13;;
78290;SDS011;67543;45.494;9.100;2023-03-22T12:27:24;26.88;;;12.30;;
78290;SDS011;67543;45.494;9.100;2023-03-22T12:30:04;21.65;;;10.90;;
78290;SDS011;67543;45.494;9.100;2023-03-22T12:32:36;23.20;;;11.68;;
78290;SDS011;67543;45.494;9.100;2023-03-22T12:35:07;22.50;;;11.75;;
78290;SDS011;67543;45.494;9.100;2023-03-22T12:37:37;20.77;;;11.75;;
78290;SDS011;67543;45.494;9.100;2023-03-22T12:42:36;22.45;;;11.63;;
78290;SDS011;67543;45.494;9.100;2023-03-22T12:45:05;19.95;;;10.30;;
78290;SDS011;67543;45.494;9.100;2023-03-22T12:47:37;20.70;;;11.38;;
78290;SDS011;67543;45.494;9.100;2023-03-22T12:52:43;25.92;;;11.95;;
78290;SDS011;67543;45.494;9.100;2023-03-22T12:55:20;20.95;;;10.93;;
78290;SDS011;67543;45.494;9.100;2023-03-22T12:57:46;18.95;;;10.23;;
78290;SDS011;67543;45.494;9.100;2023-03-22T13:00:15;18.83;;;10.45;;
78290;SDS011;67543;45.494;9.100;2023-03-22T13:02:45;17.27;;;9.48;;
78290;SDS011;67543;45.494;9.100;2023-03-22T13:05:15;18.38;;;9.07;;
78290;SDS011;67543;45.494;9.100;2023-03-22T13:10:45;17.55;;;8.93;;
78290;SDS011;67543;45.494;9.100;2023-03-22T13:18:29;14.18;;;9.15;;
78290;SDS011;67543;45.494;9.100;2023-03-22T13:21:12;15.82;;;9.05;;
78290;SDS011;67543;45.494;9.100;2023-03-22T13:26:20;17.23;;;8.90;;
78290;SDS011;67543;45.494;9.100;2023-03-22T13:28:57;18.58;;;9.40;;
78290;SDS011;67543;45.494;9.100;2023-03-22T13:31:33;16.27;;;8.90;;
78290;SDS011;67543;45.494;9.100;2023-03-22T13:34:00;17.35;;;8.85;;
78290;SDS011;67543;45.494;9.100;2023-03-22T13:36:26;14.93;;;9.43;;
78290;SDS011;67543;45.494;9.100;2023-03-22T13:38:55;18.92;;;9.88;;
78290;SDS011;67543;45.494;9.100;2023-03-22T13:43:53;16.52;;;10.20;;
78290;SDS011;67543;45.494;9.100;2023-03-22T13:49:13;12.98;;;9.23;;
78290;SDS011;67543;45.494;9.100;2023-03-22T13:51:44;16.73;;;10.55;;
78290;SDS011;67543;45.494;9.100;2023-03-22T13:59:30;17.40;;;9.35;;
78290;SDS011;67543;45.494;9.100;2023-03-22T14:02:28;14.40;;;9.18;;
78290;SDS011;67543;45.494;9.100;2023-03-22T14:07:41;14.27;;;9.05;;
78290;SDS011;67543;45.494;9.100;2023-03-22T14:10:27;16.98;;;9.55;;
78290;SDS011;67543;45.494;9.100;2023-03-22T14:13:15;14.38;;;8.65;;
78290;SDS011;67543;45.494;9.100;2023-03-22T14:15:44;16.23;;;9.35;;
78290;SDS011;67543;45.494;9.100;2023-03-22T14:18:23;14.10;;;7.55;;
78290;SDS011;67543;45.494;9.100;2023-03-22T14:20:53;15.63;;;7.00;;
78290;SDS011;67543;45.494;9.100;2023-03-22T14:23:55;10.13;;;6.38;;
78290;SDS011;67543;45.494;9.100;2023-03-22T14:26:15;10.65;;;6.20;;
78290;SDS011;67543;45.494;9.100;2023-03-22T14:31:37;10.90;;;6.03;;
78290;SDS011;67543;45.494;9.100;2023-03-22T14:34:05;13.45;;;6.80;;
78290;SDS011;67543;45.494;9.100;2023-03-22T14:36:33;12.18;;;5.75;;
78290;SDS011;67543;45.494;9.100;2023-03-22T14:39:21;11.38;;;5.88;;
78290;SDS011;67543;45.494;9.100;2023-03-22T14:42:03;11.63;;;7.22;;
78290;SDS011;67543;45.494;9.100;2023-03-22T14:44:36;11.82;;;6.32;;
78290;SDS011;67543;45.494;9.100;2023-03-22T14:50:08;12.10;;;4.93;;
78290;SDS011;67543;45.494;9.100;2023-03-22T14:52:38;10.57;;;5.43;;
78290;SDS011;67543;45.494;9.100;2023-03-22T14:55:08;11.77;;;5.50;;
78290;SDS011;67543;45.494;9.100;2023-03-22T14:57:41;13.10;;;6.40;;
78290;SDS011;67543;45.494;9.100;2023-03-22T15:00:12;9.27;;;5.85;;
78290;SDS011;67543;45.494;9.100;2023-03-22T15:02:42;9.32;;;5.47;;
78290;SDS011;67543;45.494;9.100;2023-03-22T15:05:19;9.32;;;5.35;;
78290;SDS011;67543;45.494;9.100;2023-03-22T15:07:50;9.77;;;5.35;;
78290;SDS011;67543;45.494;9.100;2023-03-22T15:10:24;7.60;;;5.15;;
78290;SDS011;67543;45.494;9.100;2023-03-22T15:15:17;11.00;;;6.90;;
78290;SDS011;67543;45.494;9.100;2023-03-22T15:17:44;11.75;;;6.40;;
78290;SDS011;67543;45.494;9.100;2023-03-22T15:20:12;12.68;;;6.90;;
78290;SDS011;67543;45.494;9.100;2023-03-22T15:22:55;11.77;;;6.75;;
78290;SDS011;67543;45.494;9.100;2023-03-22T15:25:26;12.73;;;6.97;;
78290;SDS011;67543;45.494;9.100;2023-03-22T15:27:55;13.65;;;7.38;;
78290;SDS011;67543;45.494;9.100;2023-03-22T15:30:20;16.10;;;8.60;;
78290;SDS011;67543;45.494;9.100;2023-03-22T15:32:45;16.65;;;8.25;;
78290;SDS011;67543;45.494;9.100;2023-03-22T15:35:12;14.95;;;7.95;;
78290;SDS011;67543;45.494;9.100;2023-03-22T15:37:39;13.35;;;8.10;;
78290;SDS011;67543;45.494;9.100;2023-03-22T15:40:52;13.85;;;8.43;;
78290;SDS011;67543;45.494;9.100;2023-03-22T15:43:17;12.25;;;7.80;;
78290;SDS011;67543;45.494;9.100;2023-03-22T15:48:41;14.88;;;8.68;;
78290;SDS011;67543;45.494;9.100;2023-03-22T15:51:21;16.17;;;9.02;;
78290;SDS011;67543;45.494;9.100;2023-03-22T15:53:48;15.50;;;9.00;;
78290;SDS011;67543;45.494;9.100;2023-03-22T15:56:17;14.90;;;8.68;;
78290;SDS011;67543;45.494;9.100;2023-03-22T15:58:54;16.00;;;9.13;;
78290;SDS011;67543;45.494;9.100;2023-03-22T16:01:21;12.48;;;7.63;;
78290;SDS011;67543;45.494;9.100;2023-03-22T16:03:54;17.83;;;9.35;;
78290;SDS011;67543;45.494;9.100;2023-03-22T16:06:24;14.45;;;8.35;;
78290;SDS011;67543;45.494;9.100;2023-03-22T16:08:52;15.00;;;8.40;;
78290;SDS011;67543;45.494;9.100;2023-03-22T16:11:24;15.85;;;8.70;;
78290;SDS011;67543;45.494;9.100;2023-03-22T16:13:53;15.15;;;8.52;;
78290;SDS011;67543;45.494;9.100;2023-03-22T16:16:22;15.43;;;8.68;;
78290;SDS011;67543;45.494;9.100;2023-03-22T16:18:49;13.80;;;8.35;;
78290;SDS011;67543;45.494;9.100;2023-03-22T16:21:15;11.20;;;7.15;;
78290;SDS011;67543;45.494;9.100;2023-03-22T16:23:43;11.88;;;6.88;;
78290;SDS011;67543;45.494;9.100;2023-03-22T16:26:12;15.18;;;7.80;;
78290;SDS011;67543;45.494;9.100;2023-03-22T16:28:39;14.20;;;7.53;;